createdAt,value
2023-03-02T00:16:02.142Z,60.00
2023-03-02T00:18:31.695Z,60.00
2023-03-02T00:21:01.026Z,59.30
2023-03-02T00:23:30.496Z,58.70
2023-03-02T00:25:59.900Z,59.30
2023-03-02T00:28:29.680Z,59.20
2023-03-02T00:30:59.665Z,59.80
2023-03-02T00:33:29.016Z,59.90
2023-03-02T00:35:58.421Z,59.00
2023-03-02T00:38:29.373Z,58.90
2023-03-02T00:40:59.159Z,58.50
2023-03-02T00:43:29.829Z,57.90
2023-03-02T00:46:00.561Z,57.10
2023-03-02T00:48:31.132Z,56.40
2023-03-02T00:51:02.507Z,56.30
2023-03-02T00:53:31.988Z,55.50
2023-03-02T00:56:02.644Z,55.40
2023-03-02T00:58:32.671Z,55.90
2023-03-02T01:01:06.720Z,55.70
2023-03-02T01:03:36.094Z,55.90
2023-03-02T01:06:06.321Z,55.20
2023-03-02T01:08:35.698Z,53.40
2023-03-02T01:11:05.211Z,54.60
2023-03-02T01:13:34.541Z,54.40
2023-03-02T01:16:05.116Z,54.20
2023-03-02T01:18:36.445Z,53.50
2023-03-02T01:21:07.295Z,53.50
2023-03-02T01:23:36.682Z,53.00
2023-03-02T01:26:06.082Z,52.30
2023-03-02T01:28:35.625Z,52.40
2023-03-02T01:31:06.496Z,52.90
2023-03-02T01:33:36.318Z,53.60
2023-03-02T01:36:05.815Z,54.10
2023-03-02T01:38:35.198Z,53.80
2023-03-02T01:41:04.574Z,52.90
2023-03-02T01:43:33.949Z,52.20
2023-03-02T01:46:36.779Z,51.40
2023-03-02T01:49:08.784Z,50.40
2023-03-02T01:51:41.483Z,50.30
2023-03-02T01:54:12.641Z,49.50
2023-03-02T01:56:42.523Z,49.20
2023-03-02T01:59:14.437Z,48.60
2023-03-02T02:01:47.804Z,48.70
2023-03-02T02:04:17.197Z,48.60
2023-03-02T02:06:49.640Z,47.60
2023-03-02T02:09:20.718Z,47.70
2023-03-02T02:11:50.432Z,47.20
2023-03-02T02:14:21.011Z,47.70
2023-03-02T02:16:50.576Z,46.50
2023-03-02T02:19:27.382Z,47.10
2023-03-02T02:21:56.704Z,47.40
2023-03-02T02:24:38.066Z,46.80
2023-03-02T02:27:07.648Z,46.40
2023-03-02T02:29:39.900Z,46.70
2023-03-02T02:32:14.574Z,45.60
2023-03-02T02:34:47.655Z,44.90
2023-03-02T02:37:19.462Z,45.30
2023-03-02T02:39:50.381Z,45.20
2023-03-02T02:42:29.080Z,44.10
2023-03-02T02:44:59.769Z,43.30
2023-03-02T02:47:30.118Z,44.00
2023-03-02T02:50:00.869Z,44.80
2023-03-02T02:52:30.937Z,45.40
2023-03-02T02:55:02.100Z,44.80
2023-03-02T02:57:32.120Z,44.60
2023-03-02T03:00:02.667Z,43.20
2023-03-02T03:02:34.937Z,42.40
2023-03-02T03:05:07.214Z,43.30
2023-03-02T03:07:37.677Z,42.30
2023-03-02T03:10:26.989Z,42.60
2023-03-02T03:12:56.930Z,40.80
2023-03-02T03:15:26.297Z,41.00
2023-03-02T03:17:58.100Z,42.10
2023-03-02T03:20:27.940Z,42.00
2023-03-02T03:23:01.268Z,42.10
2023-03-02T03:25:30.648Z,42.20
2023-03-02T03:27:59.980Z,41.80
2023-03-02T03:30:29.730Z,41.80
2023-03-02T03:32:59.083Z,41.60
2023-03-02T03:35:28.500Z,41.00
2023-03-02T03:37:58.112Z,41.40
2023-03-02T03:40:27.840Z,41.20
2023-03-02T03:42:57.433Z,41.00
2023-03-02T03:45:28.291Z,40.70
2023-03-02T03:48:00.223Z,40.50
2023-03-02T03:50:29.595Z,40.00
2023-03-02T03:52:59.300Z,39.90
2023-03-02T03:55:30.664Z,40.00
2023-03-02T03:58:00.061Z,39.40
2023-03-02T04:00:29.483Z,39.30
2023-03-02T04:02:58.972Z,39.60
2023-03-02T04:05:29.680Z,39.30
2023-03-02T04:08:03.640Z,39.20
2023-03-02T04:10:33.109Z,39.50
2023-03-02T04:13:02.500Z,39.50
2023-03-02T04:15:32.212Z,39.40
2023-03-02T04:18:01.855Z,38.80
2023-03-02T04:20:31.414Z,39.30
2023-03-02T04:23:01.054Z,39.40
2023-03-02T04:25:31.881Z,39.20
2023-03-02T04:28:01.464Z,38.40
2023-03-02T04:30:32.100Z,38.50
2023-03-02T04:33:01.506Z,38.70
2023-03-02T04:35:30.931Z,38.60
2023-03-02T04:38:01.044Z,37.80
2023-03-02T04:40:30.975Z,37.70
2023-03-02T04:43:00.289Z,38.10
2023-03-02T04:45:29.688Z,38.20
2023-03-02T04:47:59.242Z,39.20
2023-03-02T04:50:28.639Z,38.80
2023-03-02T04:52:58.496Z,38.90
2023-03-02T04:55:28.977Z,38.70
2023-03-02T04:57:58.367Z,39.10
2023-03-02T05:00:31.658Z,38.90
2023-03-02T05:03:03.246Z,38.50
2023-03-02T05:05:33.664Z,37.70
2023-03-02T05:08:03.126Z,37.70
2023-03-02T05:10:32.893Z,38.00
2023-03-02T05:13:06.769Z,38.00
2023-03-02T05:15:36.152Z,38.30
2023-03-02T05:18:07.090Z,37.80
2023-03-02T05:20:36.910Z,37.80
2023-03-02T05:23:07.593Z,38.00
2023-03-02T05:25:38.994Z,37.90
2023-03-02T05:28:09.540Z,38.10
2023-03-02T05:30:39.333Z,37.50
2023-03-02T05:33:10.017Z,37.10
2023-03-02T05:35:39.539Z,37.20
2023-03-02T05:38:09.473Z,37.60
2023-03-02T05:40:38.801Z,37.70
2023-03-02T05:43:08.841Z,37.20
2023-03-02T05:45:39.472Z,37.80
2023-03-02T05:48:09.007Z,37.40
2023-03-02T05:50:38.384Z,37.30
2023-03-02T05:53:07.728Z,37.00
2023-03-02T05:55:40.052Z,37.00
2023-03-02T05:58:10.752Z,37.30
2023-03-02T06:00:40.100Z,37.00
2023-03-02T06:03:09.912Z,38.20
2023-03-02T06:05:44.092Z,37.80
2023-03-02T06:08:13.745Z,37.70
2023-03-02T06:10:43.524Z,37.70
2023-03-02T06:13:12.888Z,38.00
2023-03-02T06:15:44.208Z,37.80
2023-03-02T06:18:14.279Z,36.90
2023-03-02T06:20:43.673Z,36.90
2023-03-02T06:23:13.883Z,37.10
2023-03-02T06:25:50.103Z,37.70
2023-03-02T06:28:22.031Z,37.20
2023-03-02T06:30:51.625Z,37.70
2023-03-02T06:33:22.889Z,37.60
2023-03-02T06:35:52.321Z,37.20
2023-03-02T06:38:21.789Z,37.10
2023-03-02T06:40:51.164Z,37.40
2023-03-02T06:43:20.500Z,36.80
2023-03-02T06:45:49.847Z,37.00
2023-03-02T06:48:21.328Z,37.50
2023-03-02T06:50:51.058Z,37.50
2023-03-02T06:53:23.190Z,37.40
2023-03-02T06:55:53.208Z,37.60
2023-03-02T06:58:22.596Z,37.70
2023-03-02T07:00:51.964Z,38.00
2023-03-02T07:03:21.445Z,37.80
2023-03-02T07:05:51.844Z,37.60
2023-03-02T07:08:21.233Z,37.80
2023-03-02T07:10:50.571Z,37.20
2023-03-02T07:13:20.041Z,37.40
2023-03-02T07:15:49.702Z,37.90
2023-03-02T07:18:19.488Z,37.80
2023-03-02T07:20:49.958Z,38.20
2023-03-02T07:23:19.303Z,38.40
2023-03-02T07:25:48.664Z,38.20
2023-03-02T07:28:18.182Z,38.30
2023-03-02T07:30:48.625Z,38.60
2023-03-02T07:33:18.097Z,38.10
2023-03-02T07:35:47.479Z,38.00
2023-03-02T07:38:16.941Z,38.30
2023-03-02T07:40:47.150Z,38.70
2023-03-02T07:43:16.488Z,39.10
2023-03-02T07:45:45.819Z,38.70
2023-03-02T07:48:15.188Z,38.90
2023-03-02T07:50:44.606Z,39.10
2023-03-02T07:53:13.953Z,38.90
2023-03-02T07:55:44.012Z,39.20
2023-03-02T07:58:13.367Z,39.50
2023-03-02T08:00:43.116Z,39.50
2023-03-02T08:03:12.592Z,40.20
2023-03-02T08:05:41.940Z,40.70
2023-03-02T08:08:11.442Z,40.70
2023-03-02T08:10:41.038Z,40.60
2023-03-02T08:13:10.386Z,40.90
2023-03-02T08:15:40.414Z,41.00
2023-03-02T08:18:09.842Z,41.20
2023-03-02T08:20:39.476Z,41.70
2023-03-02T09:16:00.174Z,49.00
2023-03-02T09:18:30.677Z,49.80
2023-03-02T09:21:00.979Z,49.80
2023-03-02T09:23:30.747Z,49.80
2023-03-02T09:26:01.170Z,50.20
2023-03-02T09:28:30.791Z,49.90
2023-03-02T09:31:00.818Z,50.10
2023-03-02T09:33:30.815Z,50.30
2023-03-02T09:36:00.152Z,50.00
2023-03-02T09:38:29.748Z,50.40
2023-03-02T09:41:01.979Z,51.90
2023-03-02T09:43:46.678Z,53.10
2023-03-02T09:46:16.022Z,54.40
2023-03-02T09:48:54.710Z,55.10
2023-03-02T09:51:24.138Z,56.20
2023-03-02T09:54:06.693Z,56.60
2023-03-02T09:56:38.437Z,57.10
2023-03-02T09:59:10.762Z,57.50
2023-03-02T10:01:43.687Z,59.40
2023-03-02T10:04:16.332Z,60.10
2023-03-02T10:06:47.793Z,60.50
2023-03-02T10:09:18.196Z,61.10
2023-03-02T10:11:56.512Z,62.00
2023-03-02T11:18:56.982Z,66.80
2023-03-02T11:21:31.050Z,66.80
2023-03-02T11:24:01.126Z,67.00
2023-03-02T11:26:33.177Z,66.80
2023-03-02T11:29:08.572Z,67.30
2023-03-02T11:31:41.092Z,67.00
2023-03-02T11:34:20.283Z,67.30
2023-03-02T11:37:08.290Z,67.20
2023-03-02T11:39:50.054Z,67.90
2023-03-02T11:42:27.425Z,67.90
2023-03-02T11:44:56.972Z,67.80
2023-03-02T11:47:26.722Z,67.70
2023-03-02T11:50:00.846Z,68.10
2023-03-02T11:52:32.360Z,68.10
2023-03-02T11:55:06.391Z,67.80
2023-03-02T11:57:50.082Z,68.00
2023-03-02T12:00:32.171Z,68.60
2023-03-02T12:03:06.819Z,68.70
2023-03-02T12:05:41.298Z,68.60
2023-03-02T12:08:23.349Z,68.50
2023-03-02T12:11:03.733Z,69.00
2023-03-02T12:13:34.798Z,68.60
2023-03-02T12:16:04.424Z,68.50
2023-03-02T12:18:45.116Z,68.50
2023-03-02T12:21:16.549Z,68.60
2023-03-02T12:23:52.481Z,68.50
2023-03-02T12:26:22.471Z,68.70
2023-03-02T12:29:00.289Z,68.90
2023-03-02T12:31:41.219Z,68.80
2023-03-02T12:34:35.230Z,68.80
2023-03-02T12:37:10.370Z,69.30
2023-03-02T12:39:53.416Z,69.10
2023-03-02T12:42:28.953Z,69.10
2023-03-02T12:45:21.675Z,69.50
2023-03-02T12:47:53.416Z,69.50
2023-03-02T12:50:26.956Z,69.50
2023-03-02T12:53:08.061Z,69.60
2023-03-02T12:55:40.645Z,69.50
2023-03-02T12:58:17.330Z,70.30
2023-03-02T13:00:52.338Z,70.10
2023-03-02T13:03:21.837Z,70.00
2023-03-02T13:05:51.297Z,70.10
2023-03-02T13:08:20.705Z,70.00
2023-03-02T13:10:53.107Z,70.10
2023-03-02T13:13:24.464Z,70.30
2023-03-02T13:15:56.225Z,70.30
2023-03-02T13:18:26.866Z,70.30
2023-03-02T13:20:56.698Z,70.50
2023-03-02T13:23:26.704Z,70.60
2023-03-02T13:25:56.467Z,70.60
2023-03-02T13:28:36.794Z,71.10
2023-03-02T13:31:18.790Z,71.00
2023-03-02T13:33:49.401Z,71.30
2023-03-02T13:36:23.523Z,70.90
2023-03-02T13:38:54.218Z,70.70
2023-03-02T13:41:34.208Z,70.90
2023-03-02T13:44:24.712Z,70.70
2023-03-02T13:46:54.075Z,70.40
2023-03-02T13:49:34.602Z,70.30
2023-03-02T13:52:08.137Z,70.60
2023-03-02T13:54:38.261Z,70.40
2023-03-02T13:57:08.466Z,70.80
2023-03-02T13:59:38.169Z,70.70
2023-03-02T14:02:21.266Z,70.90
2023-03-02T14:04:50.727Z,70.90
2023-03-02T14:07:20.192Z,70.50
2023-03-02T14:09:49.927Z,70.90
2023-03-02T14:12:27.558Z,70.90
2023-03-02T14:14:59.133Z,71.30
2023-03-02T14:17:28.805Z,71.10
2023-03-02T14:19:58.275Z,71.20
2023-03-02T14:22:29.147Z,70.80
2023-03-02T14:24:58.908Z,71.00
2023-03-02T14:27:30.082Z,70.90
2023-03-02T14:29:59.948Z,71.00
2023-03-02T14:32:29.853Z,71.10
2023-03-02T14:34:59.427Z,70.80
2023-03-02T14:37:30.747Z,71.20
2023-03-02T14:40:00.181Z,70.80
2023-03-02T14:42:29.946Z,70.70
2023-03-02T14:45:00.055Z,70.70
2023-03-02T14:47:29.798Z,71.00
2023-03-02T14:49:59.179Z,70.90
2023-03-02T14:52:38.006Z,71.20
2023-03-02T14:55:08.868Z,71.50
2023-03-02T14:57:41.797Z,71.10
2023-03-02T15:00:14.564Z,70.90
2023-03-02T15:02:44.215Z,71.00
2023-03-02T15:05:14.199Z,71.10
2023-03-02T15:07:44.035Z,71.20
2023-03-02T15:10:17.904Z,71.20
2023-03-02T15:12:48.314Z,71.00
2023-03-02T15:15:17.870Z,71.00
2023-03-02T15:17:47.205Z,70.90
2023-03-02T15:20:17.786Z,70.90
2023-03-02T15:22:47.556Z,71.10
2023-03-02T15:25:16.966Z,71.20
2023-03-02T15:27:46.769Z,71.00
2023-03-02T15:30:16.242Z,70.80
2023-03-02T15:32:45.634Z,71.00
2023-03-02T15:35:15.100Z,70.80
2023-03-02T15:37:44.918Z,70.90
2023-03-02T15:40:15.024Z,70.90
2023-03-02T15:42:44.784Z,71.10
2023-03-02T15:45:14.146Z,71.40
2023-03-02T15:47:43.554Z,71.40
2023-03-02T15:50:13.340Z,71.70
2023-03-02T15:52:45.813Z,71.60
2023-03-02T15:55:17.874Z,71.90
2023-03-02T15:57:47.248Z,71.80
2023-03-02T16:00:16.932Z,71.70
2023-03-02T16:02:46.745Z,71.90
2023-03-02T16:05:17.561Z,72.00
2023-03-02T16:07:47.044Z,72.00
2023-03-02T16:10:18.060Z,71.70
2023-03-02T16:12:47.401Z,71.90
2023-03-02T16:15:16.824Z,71.80
2023-03-02T16:17:46.798Z,71.90
2023-03-02T16:20:16.659Z,71.50
2023-03-02T16:22:45.986Z,71.60
2023-03-02T16:25:15.808Z,71.60
2023-03-02T16:27:49.007Z,71.50
2023-03-02T16:30:18.421Z,71.30
2023-03-02T16:32:47.923Z,71.60
2023-03-02T16:35:17.319Z,71.60
2023-03-02T16:37:46.744Z,71.50
2023-03-02T16:40:16.598Z,71.70
2023-03-02T16:42:46.467Z,71.40
2023-03-02T16:45:15.905Z,71.80
2023-03-02T16:47:45.907Z,71.70
2023-03-02T16:50:16.695Z,71.60
2023-03-02T16:52:46.443Z,71.50
2023-03-02T16:55:18.120Z,71.60
2023-03-02T16:57:47.891Z,71.80
2023-03-02T17:00:19.657Z,72.00
2023-03-02T17:02:49.652Z,72.00
2023-03-02T17:05:20.160Z,72.50
2023-03-02T17:07:50.323Z,72.40
2023-03-02T17:10:23.092Z,72.60
2023-03-02T17:12:52.420Z,72.30
2023-03-02T17:15:22.315Z,72.50
2023-03-02T17:17:51.805Z,72.10
2023-03-02T17:20:22.093Z,72.20
2023-03-02T17:22:51.467Z,72.00
2023-03-02T17:25:22.032Z,71.90
2023-03-02T17:27:52.193Z,71.80
2023-03-02T17:30:21.774Z,71.90
2023-03-02T17:32:51.679Z,71.60
2023-03-02T17:35:21.678Z,71.50
2023-03-02T17:37:51.065Z,71.60
2023-03-02T17:40:20.901Z,71.80
2023-03-02T17:42:53.224Z,71.80
2023-03-02T17:45:26.657Z,71.80
2023-03-02T17:47:56.876Z,71.80
2023-03-02T17:50:26.291Z,72.00
2023-03-02T17:52:57.450Z,71.80
2023-03-02T17:55:27.168Z,71.80
2023-03-02T17:57:56.705Z,71.80
2023-03-02T18:00:26.264Z,71.60
2023-03-02T18:02:58.546Z,71.70
2023-03-02T18:05:28.700Z,71.50
2023-03-02T18:07:58.883Z,71.60
2023-03-02T18:10:28.258Z,71.80
2023-03-02T18:12:58.448Z,72.10
2023-03-02T18:15:30.209Z,72.10
2023-03-02T18:18:00.020Z,72.00
2023-03-02T18:20:29.796Z,72.20
2023-03-02T18:23:00.131Z,72.40
2023-03-02T18:25:30.190Z,72.50
2023-03-02T18:27:59.611Z,72.40
2023-03-02T18:30:29.632Z,72.50
2023-03-02T18:32:59.385Z,72.60
2023-03-02T18:35:28.748Z,72.60
2023-03-02T18:37:58.547Z,72.70
2023-03-02T18:40:27.981Z,72.60
2023-03-02T18:42:57.374Z,72.60
2023-03-02T18:45:28.411Z,72.50
2023-03-02T18:47:58.633Z,72.50
2023-03-02T18:50:28.424Z,72.60
2023-03-02T18:52:57.763Z,72.90
2023-03-02T18:55:27.846Z,72.80
2023-03-02T18:57:57.213Z,73.00
2023-03-02T19:00:28.168Z,73.10
2023-03-02T19:02:58.701Z,73.00
2023-03-02T19:05:28.637Z,73.20
2023-03-02T19:08:00.642Z,73.20
2023-03-02T19:10:29.982Z,73.10
2023-03-02T19:12:59.747Z,73.10
2023-03-02T19:15:29.640Z,73.20
2023-03-02T19:17:59.174Z,73.40
2023-03-02T19:20:29.240Z,73.60
2023-03-02T19:22:59.158Z,73.30
2023-03-02T19:25:28.637Z,73.60
2023-03-02T19:27:58.301Z,73.90
2023-03-02T19:30:28.070Z,73.80
2023-03-02T19:32:57.977Z,74.10
2023-03-02T19:35:28.941Z,74.30
2023-03-02T19:37:58.476Z,74.40
2023-03-02T19:40:29.473Z,74.40
2023-03-02T19:42:58.973Z,74.50
2023-03-02T19:45:30.697Z,74.70
2023-03-02T19:48:00.824Z,74.70
2023-03-02T19:50:30.660Z,74.40
2023-03-02T19:53:00.647Z,74.80
2023-03-02T19:55:30.040Z,74.90
2023-03-02T19:58:02.723Z,75.10
2023-03-02T20:00:32.965Z,75.30
2023-03-02T20:03:02.486Z,75.40
2023-03-02T20:05:32.179Z,75.10
2023-03-02T20:08:01.587Z,75.40
2023-03-02T20:10:37.484Z,75.20
2023-03-02T20:13:07.464Z,75.60
2023-03-02T20:15:40.105Z,75.60
2023-03-02T20:18:14.751Z,75.70
2023-03-02T20:20:45.056Z,75.50
2023-03-02T20:23:15.938Z,75.50
2023-03-02T20:25:48.235Z,75.60
2023-03-02T20:28:21.327Z,75.80
2023-03-02T20:30:53.792Z,75.60
2023-03-02T20:33:25.670Z,75.50
2023-03-02T20:35:56.480Z,75.30
2023-03-02T20:38:41.708Z,75.70
2023-03-02T20:41:13.470Z,75.50
2023-03-02T20:43:45.507Z,75.40
2023-03-02T20:46:20.209Z,75.20
2023-03-02T20:48:50.099Z,74.80
2023-03-02T20:51:19.531Z,74.60
2023-03-02T20:53:48.917Z,74.70
2023-03-02T20:56:20.135Z,74.20
2023-03-02T20:58:50.178Z,73.70
2023-03-02T21:01:20.380Z,73.30
2023-03-02T21:03:49.755Z,72.30
2023-03-02T21:06:19.836Z,71.80
2023-03-02T21:08:49.692Z,71.80
2023-03-02T21:11:20.226Z,71.90
2023-03-02T21:13:50.233Z,71.70
2023-03-02T21:16:23.156Z,71.70
2023-03-02T21:18:52.704Z,71.40
2023-03-02T21:21:29.816Z,71.30
2023-03-02T21:24:09.635Z,71.10
2023-03-02T21:26:39.399Z,71.00
2023-03-02T21:29:12.163Z,68.00
2023-03-02T21:31:45.379Z,65.60
2023-03-02T21:34:14.984Z,64.10
2023-03-02T21:36:45.469Z,65.30
2023-03-02T21:39:16.016Z,66.50
2023-03-02T21:41:45.401Z,67.50
2023-03-02T21:44:15.344Z,67.90
2023-03-02T21:46:44.858Z,68.00
2023-03-02T21:49:17.709Z,68.30
2023-03-02T21:51:48.984Z,67.80
2023-03-02T21:54:19.281Z,67.60
